createdAt,value
2023-02-19T00:01:48.766Z,7.70
2023-02-19T00:04:17.884Z,10.37
2023-02-19T00:06:47.848Z,7.10
2023-02-19T00:09:16.909Z,7.90
2023-02-19T00:11:46.201Z,7.27
2023-02-19T00:14:16.402Z,5.87
2023-02-19T00:16:44.678Z,6.63
2023-02-19T00:19:14.147Z,6.13
2023-02-19T00:21:42.322Z,5.37
2023-02-19T00:24:12.982Z,5.43
2023-02-19T00:26:41.697Z,5.80
2023-02-19T00:29:11.024Z,6.10
2023-02-19T00:31:40.237Z,7.30
2023-02-19T00:34:09.416Z,5.97
2023-02-19T00:36:38.774Z,4.93
2023-02-19T00:39:07.697Z,4.87
2023-02-19T00:41:37.218Z,6.50
2023-02-19T00:44:06.441Z,4.73
2023-02-19T00:46:35.943Z,4.70
2023-02-19T00:49:04.519Z,4.13
2023-02-19T00:51:33.911Z,4.17
2023-02-19T00:54:02.081Z,5.03
2023-02-19T00:56:30.234Z,5.20
2023-02-19T00:58:59.775Z,6.17
2023-02-19T01:01:28.189Z,6.40
2023-02-19T01:03:56.368Z,4.67
2023-02-19T01:06:24.549Z,7.93
2023-02-19T01:08:52.702Z,7.17
2023-02-19T01:11:21.074Z,4.83
2023-02-19T01:13:49.384Z,5.47
2023-02-19T01:16:20.029Z,6.33
2023-02-19T01:18:48.667Z,6.97
2023-02-19T01:21:17.951Z,4.87
2023-02-19T01:23:46.190Z,5.13
2023-02-19T01:26:15.055Z,3.90
2023-02-19T01:28:43.399Z,4.63
2023-02-19T01:31:13.880Z,6.70
2023-02-19T01:33:45.903Z,3.80
2023-02-19T01:36:14.314Z,3.50
2023-02-19T01:38:42.735Z,3.53
2023-02-19T01:41:12.583Z,3.63
2023-02-19T01:43:57.435Z,3.90
2023-02-19T01:46:27.082Z,3.77
2023-02-19T01:48:57.241Z,5.60
2023-02-19T01:51:25.420Z,5.87
2023-02-19T01:53:55.803Z,8.13
2023-02-19T01:56:24.713Z,8.13
2023-02-19T01:58:52.951Z,9.23
2023-02-19T02:01:21.355Z,8.60
2023-02-19T02:03:52.004Z,10.73
2023-02-19T02:06:24.555Z,9.73
2023-02-19T02:09:11.146Z,10.00
2023-02-19T02:11:40.758Z,9.67
2023-02-19T02:14:08.941Z,10.83
2023-02-19T02:16:43.437Z,11.10
2023-02-19T02:19:19.623Z,12.40
2023-02-19T02:21:53.705Z,10.40
2023-02-19T02:24:40.373Z,12.43
2023-02-19T02:27:19.405Z,16.87
2023-02-19T02:30:05.669Z,11.33
2023-02-19T02:32:37.142Z,13.80
2023-02-19T02:35:07.613Z,11.80
2023-02-19T02:37:37.433Z,12.70
2023-02-19T02:40:06.313Z,12.40
2023-02-19T02:42:35.211Z,11.00
2023-02-19T02:45:37.734Z,15.90
2023-02-19T02:48:09.214Z,10.33
2023-02-19T02:50:39.409Z,11.77
2023-02-19T02:53:27.275Z,14.70
2023-02-19T02:55:56.369Z,11.70
2023-02-19T02:58:26.094Z,11.80
2023-02-19T03:01:15.675Z,14.30
2023-02-19T03:03:45.346Z,13.90
2023-02-19T03:06:14.916Z,12.90
2023-02-19T03:08:46.348Z,15.60
2023-02-19T03:11:32.328Z,14.10
2023-02-19T03:14:22.324Z,15.60
2023-02-19T03:17:10.528Z,15.37
2023-02-19T03:19:42.651Z,19.10
2023-02-19T03:22:13.704Z,14.57
2023-02-19T03:25:02.722Z,13.63
2023-02-19T03:27:32.022Z,13.17
2023-02-19T03:30:03.408Z,15.47
2023-02-19T03:32:34.825Z,13.67
2023-02-19T03:35:05.224Z,18.07
2023-02-19T03:37:36.425Z,17.87
2023-02-19T03:40:04.698Z,14.27
2023-02-19T03:42:37.969Z,15.07
2023-02-19T03:45:13.442Z,15.03
2023-02-19T03:47:45.258Z,17.97
2023-02-19T03:50:17.303Z,15.53
2023-02-19T03:52:48.832Z,16.77
2023-02-19T03:55:18.665Z,16.77
2023-02-19T03:57:48.861Z,15.37
2023-02-19T04:00:18.725Z,14.87
2023-02-19T04:02:50.795Z,12.27
2023-02-19T04:05:20.622Z,12.80
2023-02-19T04:07:50.770Z,16.47
2023-02-19T04:10:19.533Z,14.23
2023-02-19T04:12:50.226Z,13.13
2023-02-19T04:15:21.720Z,17.67
2023-02-19T04:17:55.193Z,12.40
2023-02-19T04:20:23.999Z,16.00
2023-02-19T04:22:53.180Z,16.03
2023-02-19T04:25:21.834Z,14.70
2023-02-19T04:27:50.319Z,12.63
2023-02-19T04:30:18.508Z,14.63
2023-02-19T04:32:46.703Z,14.30
2023-02-19T04:35:16.214Z,17.00
2023-02-19T04:37:44.396Z,15.70
2023-02-19T04:40:12.887Z,14.07
2023-02-19T04:42:41.032Z,21.50
2023-02-19T04:45:09.705Z,14.60
2023-02-19T04:47:37.863Z,15.83
2023-02-19T04:50:06.219Z,17.10
2023-02-19T04:52:35.738Z,18.37
2023-02-19T04:55:04.229Z,17.90
2023-02-19T04:57:32.392Z,13.57
2023-02-19T05:00:00.634Z,16.07
2023-02-19T05:02:29.051Z,16.37
2023-02-19T05:04:57.178Z,13.67
2023-02-19T05:07:25.342Z,16.10
2023-02-19T05:09:54.901Z,20.37
2023-02-19T05:12:23.173Z,17.07
2023-02-19T05:14:51.347Z,18.10
2023-02-19T05:17:19.502Z,16.30
2023-02-19T05:19:47.644Z,16.60
2023-02-19T05:22:15.837Z,14.80
2023-02-19T05:24:43.961Z,13.43
2023-02-19T05:27:13.482Z,10.70
2023-02-19T05:29:41.650Z,15.27
2023-02-19T05:32:09.821Z,17.20
2023-02-19T05:34:38.048Z,14.40
2023-02-19T05:37:06.204Z,14.87
2023-02-19T05:39:34.430Z,20.10
2023-02-19T05:42:02.589Z,18.07
2023-02-19T05:44:32.126Z,16.57
2023-02-19T05:47:00.293Z,12.07
2023-02-19T05:49:28.505Z,15.80
2023-02-19T05:51:56.725Z,15.63
2023-02-19T05:54:24.925Z,15.50
2023-02-19T05:56:53.106Z,14.83
2023-02-19T05:59:22.557Z,15.70
2023-02-19T06:01:52.786Z,14.67
2023-02-19T06:04:21.172Z,18.97
2023-02-19T06:06:49.812Z,12.53
2023-02-19T06:09:18.218Z,18.50
2023-02-19T06:11:46.604Z,15.43
2023-02-19T06:14:15.290Z,17.13
2023-02-19T06:16:43.504Z,20.17
2023-02-19T06:19:13.004Z,14.23
2023-02-19T06:21:41.409Z,18.27
2023-02-19T06:24:10.055Z,17.30
2023-02-19T06:26:38.436Z,14.30
2023-02-19T06:29:06.604Z,20.43
2023-02-19T06:31:34.837Z,20.70
2023-02-19T06:34:05.151Z,14.80
2023-02-19T06:36:34.830Z,18.13
2023-02-19T06:39:03.232Z,15.57
2023-02-19T06:41:31.429Z,16.67
2023-02-19T06:43:59.692Z,23.17
2023-02-19T06:46:27.928Z,17.33
2023-02-19T06:48:56.077Z,16.53
2023-02-19T06:51:27.067Z,18.87
2023-02-19T06:53:57.239Z,21.43
2023-02-19T06:56:26.737Z,19.13
2023-02-19T06:58:55.117Z,18.17
2023-02-19T07:01:23.297Z,18.57
2023-02-19T07:03:52.535Z,15.17
2023-02-19T07:06:20.845Z,17.33
2023-02-19T07:08:49.039Z,18.33
2023-02-19T07:11:19.300Z,17.70
2023-02-19T07:13:47.726Z,15.40
2023-02-19T07:16:17.757Z,17.23
2023-02-19T07:18:46.018Z,11.80
2023-02-19T07:21:14.750Z,11.33
2023-02-19T07:23:42.946Z,15.37
2023-02-19T07:26:11.689Z,16.03
2023-02-19T07:28:41.766Z,18.03
2023-02-19T07:31:10.720Z,13.20
2023-02-19T07:33:39.103Z,16.60
2023-02-19T07:36:08.958Z,11.07
2023-02-19T07:38:37.296Z,17.47
2023-02-19T07:41:06.284Z,19.03
2023-02-19T07:43:35.775Z,15.97
2023-02-19T07:46:05.928Z,16.53
2023-02-19T07:48:34.211Z,17.03
2023-02-19T07:51:02.764Z,18.13
2023-02-19T07:53:31.013Z,17.17
2023-02-19T07:56:01.502Z,14.23
2023-02-19T07:58:29.711Z,13.00
2023-02-19T08:00:58.116Z,14.77
2023-02-19T08:03:26.750Z,20.10
2023-02-19T08:05:54.987Z,17.07
2023-02-19T08:08:23.245Z,15.23
2023-02-19T08:11:09.014Z,14.97
2023-02-19T08:13:37.262Z,19.93
2023-02-19T08:16:20.123Z,14.03
2023-02-19T08:18:53.828Z,21.07
2023-02-19T08:21:22.026Z,20.77
2023-02-19T08:23:51.238Z,18.70
2023-02-19T08:26:19.590Z,15.10
2023-02-19T08:28:47.822Z,12.13
2023-02-19T08:31:16.203Z,17.17
2023-02-19T08:33:44.492Z,13.53
2023-02-19T08:36:13.992Z,13.47
2023-02-19T08:38:42.174Z,21.20
2023-02-19T08:41:12.145Z,18.03
2023-02-19T08:43:40.495Z,17.87
2023-02-19T08:46:10.008Z,15.30
2023-02-19T08:48:38.630Z,16.03
2023-02-19T08:51:09.195Z,16.00
2023-02-19T08:53:39.696Z,15.27
2023-02-19T08:56:08.160Z,10.37
2023-02-19T08:58:37.373Z,17.63
2023-02-19T09:01:05.659Z,15.93
2023-02-19T09:03:33.843Z,16.27
2023-02-19T09:06:01.982Z,14.53
2023-02-19T09:08:30.142Z,20.63
2023-02-19T09:11:03.384Z,12.07
2023-02-19T09:13:31.558Z,13.60
2023-02-19T09:15:59.777Z,10.67
2023-02-19T09:18:28.021Z,14.03
2023-02-19T09:20:57.566Z,10.47
2023-02-19T09:23:25.772Z,20.00
2023-02-19T09:25:58.489Z,11.87
2023-02-19T09:28:28.076Z,10.83
2023-02-19T09:30:56.281Z,13.70
2023-02-19T09:33:24.445Z,11.80
2023-02-19T09:35:52.806Z,17.73
2023-02-19T09:38:20.974Z,13.13
2023-02-19T09:40:49.620Z,7.50
2023-02-19T09:43:19.878Z,11.47
2023-02-19T09:45:50.048Z,8.77
2023-02-19T09:48:18.234Z,16.57
2023-02-19T09:50:47.620Z,12.67
2023-02-19T09:53:18.557Z,15.70
2023-02-19T09:55:47.290Z,11.43
2023-02-19T09:58:20.735Z,10.53
2023-02-19T10:00:50.750Z,12.47
2023-02-19T10:03:25.440Z,14.17
2023-02-19T10:05:54.929Z,12.60
2023-02-19T10:08:23.070Z,13.40
2023-02-19T10:10:51.234Z,13.93
2023-02-19T10:13:21.752Z,12.07
2023-02-19T10:15:52.263Z,11.97
2023-02-19T10:18:21.103Z,12.80
2023-02-19T10:20:49.877Z,9.53
2023-02-19T10:23:18.264Z,9.77
2023-02-19T10:25:48.935Z,11.43
2023-02-19T10:28:19.043Z,12.73
2023-02-19T10:30:50.285Z,10.50
2023-02-19T10:33:20.174Z,13.20
2023-02-19T10:35:56.025Z,14.20
2023-02-19T10:38:26.030Z,12.97
2023-02-19T10:40:59.333Z,11.40
2023-02-19T10:43:32.944Z,9.47
2023-02-19T10:46:06.556Z,12.27
2023-02-19T10:48:37.326Z,11.40
2023-02-19T10:51:07.870Z,7.03
2023-02-19T10:53:43.597Z,8.40
2023-02-19T10:56:12.522Z,11.70
2023-02-19T10:58:42.423Z,11.10
2023-02-19T11:01:14.872Z,10.43
2023-02-19T11:03:45.393Z,8.97
2023-02-19T11:06:14.373Z,11.43
2023-02-19T11:08:50.243Z,9.47
2023-02-19T11:11:32.957Z,10.90
2023-02-19T11:14:02.178Z,12.20
2023-02-19T11:16:39.846Z,12.53
2023-02-19T11:19:21.763Z,10.60
2023-02-19T11:21:50.167Z,17.63
2023-02-19T11:24:23.365Z,10.97
2023-02-19T11:26:51.586Z,11.97
2023-02-19T11:29:22.439Z,12.80
2023-02-19T11:31:50.952Z,10.93
2023-02-19T11:34:30.210Z,11.23
2023-02-19T11:37:12.114Z,12.63
2023-02-19T11:39:41.311Z,11.57
2023-02-19T11:42:16.987Z,9.33
2023-02-19T11:44:48.896Z,5.93
2023-02-19T11:47:32.264Z,7.57
2023-02-19T11:50:04.503Z,9.47
2023-02-19T11:52:35.950Z,7.67
2023-02-19T11:55:08.642Z,10.90
2023-02-19T11:57:40.163Z,8.03
2023-02-19T12:00:20.143Z,4.97
2023-02-19T12:02:57.562Z,5.77
2023-02-19T12:05:36.170Z,6.87
2023-02-19T12:08:29.036Z,7.60
2023-02-19T12:11:06.479Z,6.90
2023-02-19T12:13:42.476Z,7.63
2023-02-19T12:16:19.438Z,8.87
2023-02-19T12:18:56.947Z,12.43
2023-02-19T12:21:32.516Z,10.83
2023-02-19T12:24:18.474Z,9.23
2023-02-19T12:26:49.510Z,10.93
2023-02-19T12:29:24.086Z,8.13
2023-02-19T12:32:15.166Z,9.03
2023-02-19T12:35:02.562Z,8.13
2023-02-19T12:37:39.086Z,10.90
2023-02-19T12:40:16.545Z,8.00
2023-02-19T12:42:51.853Z,8.00
2023-02-19T12:45:21.932Z,10.33
2023-02-19T12:47:55.342Z,5.70
2023-02-19T12:50:25.378Z,9.67
2023-02-19T12:52:57.141Z,9.83
2023-02-19T12:55:28.313Z,8.73
2023-02-19T12:57:56.590Z,7.17
2023-02-19T13:00:31.486Z,6.47
2023-02-19T13:03:01.971Z,8.87
2023-02-19T13:05:36.851Z,6.70
2023-02-19T13:08:09.021Z,7.97
2023-02-19T13:10:41.226Z,9.40
2023-02-19T13:13:11.941Z,8.33
2023-02-19T13:15:41.531Z,8.50
2023-02-19T13:18:14.439Z,10.93
2023-02-19T13:20:43.806Z,9.67
2023-02-19T13:23:33.995Z,9.87
2023-02-19T13:26:19.555Z,12.10
2023-02-19T13:28:59.305Z,11.20
2023-02-19T13:31:33.491Z,9.93
2023-02-19T13:34:04.892Z,10.33
2023-02-19T13:36:33.386Z,10.13
2023-02-19T13:39:06.384Z,11.83
2023-02-19T13:41:36.905Z,10.73
2023-02-19T13:44:06.540Z,9.93
2023-02-19T13:46:37.002Z,8.47
2023-02-19T13:49:25.614Z,11.93
2023-02-19T13:51:54.287Z,8.70
2023-02-19T13:54:26.185Z,8.07
2023-02-19T13:57:09.231Z,11.47
2023-02-19T13:59:38.554Z,9.60
2023-02-19T14:02:21.645Z,13.10
2023-02-19T14:04:51.787Z,10.30
2023-02-19T14:07:24.571Z,9.23
2023-02-19T14:09:54.628Z,10.20
2023-02-19T14:12:24.524Z,12.27
2023-02-19T14:14:53.539Z,10.67
2023-02-19T14:17:28.768Z,10.73
2023-02-19T14:19:58.285Z,7.73
2023-02-19T14:22:45.128Z,9.00
2023-02-19T14:25:22.957Z,9.33
2023-02-19T14:27:51.348Z,10.47
2023-02-19T14:30:19.832Z,14.33
2023-02-19T14:32:54.516Z,10.93
2023-02-19T14:35:28.212Z,7.50
2023-02-19T14:37:57.752Z,11.60
2023-02-19T14:40:30.436Z,8.57
2023-02-19T14:43:01.083Z,9.40
2023-02-19T14:45:30.979Z,6.93
2023-02-19T14:47:59.997Z,6.53
2023-02-19T14:50:29.890Z,7.33
2023-02-19T14:53:00.208Z,10.17
2023-02-19T14:55:32.665Z,10.57
2023-02-19T14:58:01.666Z,5.50
2023-02-19T15:00:31.037Z,7.83
2023-02-19T15:03:00.024Z,10.10
2023-02-19T15:05:29.785Z,10.33
2023-02-19T15:07:59.274Z,9.83
2023-02-19T15:10:29.426Z,6.70
2023-02-19T15:12:59.821Z,8.50
2023-02-19T15:15:30.562Z,7.60
2023-02-19T15:17:59.345Z,7.63
2023-02-19T15:20:29.686Z,7.00
2023-02-19T15:22:58.462Z,9.27
2023-02-19T15:25:28.882Z,9.37
2023-02-19T15:27:58.386Z,12.27
2023-02-19T15:30:28.435Z,9.50
2023-02-19T15:32:57.519Z,9.27
2023-02-19T15:35:27.013Z,12.03
2023-02-19T15:37:56.113Z,12.27
2023-02-19T15:40:26.552Z,9.30
2023-02-19T15:42:54.734Z,11.30
2023-02-19T15:45:26.441Z,8.43
2023-02-19T15:47:57.903Z,8.57
2023-02-19T15:50:27.632Z,9.27
2023-02-19T15:53:00.431Z,13.00
2023-02-19T15:55:32.818Z,11.00
2023-02-19T15:58:08.470Z,10.53
2023-02-19T16:00:40.873Z,12.47
2023-02-19T16:03:15.130Z,10.30
2023-02-19T16:05:43.269Z,11.63
2023-02-19T16:08:19.430Z,12.53
2023-02-19T16:10:55.137Z,13.77
2023-02-19T16:13:25.293Z,11.73
2023-02-19T16:16:07.967Z,7.63
2023-02-19T16:18:36.235Z,8.00
2023-02-19T16:21:06.441Z,7.23
2023-02-19T16:23:34.629Z,11.33
2023-02-19T16:26:03.589Z,9.17
2023-02-19T16:28:37.117Z,12.67
2023-02-19T16:31:07.354Z,10.00
2023-02-19T16:33:37.813Z,11.20
2023-02-19T16:36:19.819Z,14.27
2023-02-19T16:39:00.822Z,12.57
2023-02-19T16:41:29.153Z,10.50
2023-02-19T16:43:57.289Z,12.87
2023-02-19T16:46:26.757Z,15.77
2023-02-19T16:48:55.893Z,10.30
2023-02-19T16:51:26.238Z,14.17
2023-02-19T16:53:54.458Z,13.83
2023-02-19T16:56:23.187Z,11.63
2023-02-19T16:58:51.405Z,12.13
2023-02-19T17:01:19.842Z,12.80
2023-02-19T17:03:49.503Z,13.87
2023-02-19T17:06:18.041Z,15.43
2023-02-19T17:08:46.219Z,10.90
2023-02-19T17:11:15.349Z,11.27
2023-02-19T17:13:44.918Z,11.03
2023-02-19T17:16:18.551Z,10.67
2023-02-19T17:18:46.822Z,13.57
2023-02-19T17:21:17.290Z,12.30
2023-02-19T17:23:45.477Z,10.23
2023-02-19T17:26:15.261Z,9.93
2023-02-19T17:28:43.410Z,9.60
2023-02-19T17:31:12.430Z,11.30
2023-02-19T17:33:40.978Z,7.63
2023-02-19T17:36:09.560Z,10.77
2023-02-19T17:38:39.103Z,8.40
2023-02-19T17:41:07.249Z,8.63
2023-02-19T17:43:35.486Z,5.80
2023-02-19T17:46:04.066Z,9.83
2023-02-19T17:48:32.384Z,7.50
2023-02-19T17:51:00.524Z,7.70
2023-02-19T17:53:28.683Z,7.57
2023-02-19T17:55:58.188Z,8.50
2023-02-19T17:58:26.342Z,6.13
2023-02-19T18:00:54.663Z,7.07
2023-02-19T18:03:22.824Z,6.13
2023-02-19T18:05:50.991Z,9.80
2023-02-19T18:08:19.153Z,10.13
2023-02-19T18:10:47.354Z,6.30
2023-02-19T18:13:16.920Z,5.90
2023-02-19T18:15:45.071Z,8.30
2023-02-19T18:18:13.253Z,8.87
2023-02-19T18:20:41.405Z,7.80
2023-02-19T18:23:09.540Z,8.43
2023-02-19T18:25:37.696Z,8.37
2023-02-19T18:28:06.314Z,11.27
2023-02-19T18:30:35.937Z,8.47
2023-02-19T18:33:04.175Z,9.53
2023-02-19T18:35:34.793Z,9.93
2023-02-19T18:38:03.305Z,8.27
2023-02-19T18:40:31.517Z,7.90
2023-02-19T18:42:59.713Z,8.73
2023-02-19T18:45:29.553Z,12.27
2023-02-19T18:47:59.084Z,10.10
2023-02-19T18:50:27.225Z,10.27
2023-02-19T18:52:55.416Z,7.37
2023-02-19T18:55:23.574Z,10.70
2023-02-19T18:57:51.741Z,11.37
2023-02-19T19:00:22.720Z,10.60
2023-02-19T19:02:51.959Z,9.73
2023-02-19T19:05:24.030Z,9.77
2023-02-19T19:07:52.899Z,13.67
2023-02-19T19:10:21.394Z,13.13
2023-02-19T19:12:49.620Z,10.20
2023-02-19T19:15:18.547Z,14.43
2023-02-19T19:17:46.937Z,12.20
2023-02-19T19:20:15.598Z,13.83
2023-02-19T19:22:45.154Z,15.13
2023-02-19T19:25:13.537Z,11.70
2023-02-19T19:27:41.686Z,9.90
2023-02-19T19:30:10.272Z,12.37
2023-02-19T19:32:38.574Z,11.67
2023-02-19T19:35:07.015Z,13.73
2023-02-19T19:37:35.190Z,11.93
2023-02-19T19:40:04.882Z,9.80
2023-02-19T19:42:33.085Z,11.30
2023-02-19T19:45:01.263Z,10.27
2023-02-19T19:47:29.830Z,10.60
2023-02-19T19:49:58.098Z,10.90
2023-02-19T19:52:26.277Z,9.83
2023-02-19T19:54:54.740Z,12.00
2023-02-19T19:57:24.328Z,8.97
2023-02-19T19:59:52.558Z,11.30
2023-02-19T20:02:21.052Z,9.53
2023-02-19T20:04:49.234Z,11.10
2023-02-19T20:07:17.395Z,10.73
2023-02-19T20:09:48.066Z,10.53
2023-02-19T20:12:16.230Z,10.53
2023-02-19T20:14:46.824Z,9.37
2023-02-19T20:17:15.406Z,9.27
2023-02-19T20:19:43.795Z,11.13
2023-02-19T20:22:12.414Z,10.60
2023-02-19T20:24:40.565Z,10.43
2023-02-19T20:27:08.932Z,9.77
2023-02-19T20:29:37.197Z,8.80
2023-02-19T20:32:07.003Z,8.87
2023-02-19T20:34:35.180Z,10.47
2023-02-19T20:37:03.454Z,8.23
2023-02-19T20:39:31.990Z,9.27
2023-02-19T20:42:00.721Z,9.13
2023-02-19T20:44:29.709Z,13.70
2023-02-19T20:46:58.698Z,8.80
2023-02-19T20:49:29.374Z,8.03
2023-02-19T20:51:58.764Z,7.93
2023-02-19T20:54:28.350Z,9.97
2023-02-19T20:56:57.590Z,8.37
2023-02-19T20:59:30.409Z,10.53
2023-02-19T21:01:58.680Z,8.70
2023-02-19T21:04:28.475Z,8.80
2023-02-19T21:06:56.609Z,8.30
2023-02-19T21:09:25.209Z,10.13
2023-02-19T21:11:53.899Z,8.83
2023-02-19T21:14:22.122Z,8.93
2023-02-19T21:16:50.516Z,9.77
2023-02-19T21:19:18.684Z,10.47
2023-02-19T21:21:48.200Z,9.03
2023-02-19T21:24:16.710Z,8.30
2023-02-19T21:26:45.249Z,8.90
2023-02-19T21:29:16.898Z,9.10
2023-02-19T21:31:45.908Z,11.00
2023-02-19T21:34:14.970Z,10.63
2023-02-19T21:36:43.233Z,10.10
2023-02-19T21:39:14.372Z,12.57
2023-02-19T21:41:42.499Z,11.80
2023-02-19T21:44:10.742Z,10.60
2023-02-19T21:46:39.077Z,10.20
2023-02-19T21:49:07.270Z,13.27
2023-02-19T21:51:36.177Z,11.77
2023-02-19T21:54:04.662Z,11.23
2023-02-19T21:56:36.393Z,13.60
2023-02-19T21:59:05.193Z,12.37
2023-02-19T22:01:38.467Z,14.07
2023-02-19T22:04:06.853Z,14.30
2023-02-19T22:06:35.432Z,16.17
2023-02-19T22:09:03.905Z,14.57
2023-02-19T22:11:33.419Z,14.00
2023-02-19T22:14:01.595Z,17.17
2023-02-19T22:16:29.792Z,18.83
2023-02-19T22:18:58.543Z,12.10
2023-02-19T22:21:27.803Z,17.70
2023-02-19T22:23:56.415Z,15.03
2023-02-19T22:26:25.595Z,16.47
2023-02-19T22:28:55.295Z,14.70
2023-02-19T22:31:24.877Z,14.87
2023-02-19T22:33:53.111Z,13.27
2023-02-19T22:36:22.032Z,14.63
2023-02-19T22:38:50.361Z,13.50
2023-02-19T22:41:19.323Z,14.60
2023-02-19T22:43:47.668Z,15.60
2023-02-19T22:46:18.054Z,13.73
2023-02-19T22:48:46.308Z,13.10
2023-02-19T22:51:15.304Z,15.27
2023-02-19T22:53:47.007Z,13.17
2023-02-19T22:56:15.777Z,17.33
2023-02-19T22:58:44.238Z,13.93
2023-02-19T23:01:12.878Z,16.57
2023-02-19T23:03:47.742Z,14.77
2023-02-19T23:06:16.168Z,12.63
2023-02-19T23:08:44.433Z,18.43
2023-02-19T23:11:13.134Z,11.63
2023-02-19T23:13:42.992Z,14.87
2023-02-19T23:16:11.936Z,15.13
2023-02-19T23:18:40.305Z,17.53
2023-02-19T23:21:09.875Z,17.50
2023-02-19T23:23:38.023Z,13.93
2023-02-19T23:26:06.224Z,14.93
2023-02-19T23:28:34.374Z,16.20
2023-02-19T23:31:02.767Z,13.33
2023-02-19T23:33:30.938Z,13.97
2023-02-19T23:35:59.202Z,18.77
2023-02-19T23:38:28.989Z,12.80
2023-02-19T23:40:57.136Z,17.53
2023-02-19T23:43:25.304Z,14.80
2023-02-19T23:45:53.561Z,17.60
2023-02-19T23:48:21.760Z,17.73
2023-02-19T23:50:49.924Z,16.70
2023-02-19T23:53:18.291Z,19.57
2023-02-19T23:55:47.826Z,18.27
2023-02-19T23:58:15.984Z,16.83
